• Join FlightAware (Why Join?)
  • Login
  • US Flag 
04:09AM EST


 

Airport Tracker/Info


-or-


 

Live Flight TrackerFlight Track Log ✈ C-FRMV ✈ 25-Jul-2013 ✈ CYWG - CYRT

Flight Track Log - Related Links

Times and Time Zones

All times are in EDT time to prevent confusion due to time zone crossing. See the C-FRMV flight status page for this flight to view local times or setup timezone preferences in your user account.

Time Position Orientation Groundspeed Altitude Reporting Facility
EDT Latitude Longitude Course Direction KTS MPH feet Rate Location/Type
08:15PM 49.9167 -97.2333 21° North 120 138 1,600  Level Winnipeg Center
08:16PM 49.9500 -97.2333 360° North 140 161 3,300 1,680 Climbing Winnipeg Center
08:17PM 49.9833 -97.1667 52° Northeast 140 161 5,000 1,620 Climbing Winnipeg Center
08:18PM 50.0000 -97.1500 33° Northeast 140 161 6,600 1,620 Climbing Winnipeg Center
08:19PM 50.0333 -97.0667 58° Northeast 150 173 8,300 1,560 Climbing Winnipeg Center
08:20PM 50.1902 -97.1459 21° North  Level FlightAware Approximate
08:20PM 50.0500 -97.0167 63° Northeast 160 184 9,800  Level Winnipeg Center
08:21PM 50.0833 -96.9667 44° Northeast 170 196 11,500 1,500 Climbing Winnipeg Center
08:22PM 50.1167 -96.9167 44° Northeast 170 196 12,900 1,380 Climbing Winnipeg Center
08:23PM 50.1500 -96.8667 44° Northeast 180 207 14,300 1,380 Climbing Winnipeg Center
08:24PM 50.2000 -96.8167 33° Northeast 180 207 15,700 1,260 Climbing Winnipeg Center
08:25PM 50.2333 -96.7833 33° Northeast 180 207 16,900 1,140 Climbing Winnipeg Center
08:26PM 50.2833 -96.7333 33° Northeast 190 219 18,000 1,020 Climbing Winnipeg Center
08:27PM 50.3333 -96.6833 33° Northeast 190 219 19,000 900 Climbing Winnipeg Center
08:28PM 50.3833 -96.6167 40° Northeast 200 230 19,900 900 Climbing Winnipeg Center
08:29PM 50.4167 -96.5667 44° Northeast 200 230 20,800 840 Climbing Winnipeg Center
08:30PM 50.4667 -96.5167 32° Northeast 210 242 21,600 780 Climbing Winnipeg Center
08:31PM 50.5167 -96.5000 12° North 210 242 22,400 720 Climbing Winnipeg Center
08:32PM 50.5667 -96.4333 40° Northeast 210 242 23,100 720 Climbing Winnipeg Center
08:33PM 50.6333 -96.4167 North 210 242 23,900 660 Climbing Winnipeg Center
08:34PM 50.6833 -96.3833 23° Northeast 210 242 24,500 540 Climbing Winnipeg Center
08:35PM 50.7500 -96.3500 18° North 220 253 25,000 240 Climbing Winnipeg Center
08:36PM 50.8000 -96.3333 12° North 230 265 25,000  Level Winnipeg Center
08:37PM 50.8667 -96.3000 18° North 240 276 25,000  Level Winnipeg Center
08:38PM 50.9333 -96.2500 25° Northeast 240 276 25,000  Level Winnipeg Center
08:39PM 51.0000 -96.2167 17° North 250 288 25,000  Level Winnipeg Center
08:40PM 51.0667 -96.2000 North 250 288 25,000  Level Winnipeg Center
08:41PM 51.1167 -96.1333 40° Northeast 250 288 25,000  Level Winnipeg Center
08:42PM 51.2000 -96.1167 North 250 288 25,000  Level Winnipeg Center
08:43PM 51.2500 -96.0833 23° Northeast 250 288 25,000  Level Winnipeg Center
08:44PM 51.3333 -96.0500 14° North 250 288 25,000  Level Winnipeg Center
08:45PM 51.3833 -96.0333 12° North 250 288 25,000  Level Winnipeg Center
08:46PM 51.4500 -95.9667 32° Northeast 250 288 25,000  Level Winnipeg Center
08:47PM 51.5167 -95.9500 North 240 276 25,000  Level Winnipeg Center
08:48PM 51.5833 -95.9167 17° North 240 276 25,000  Level Winnipeg Center
08:49PM 51.6500 -95.8833 17° North 250 288 25,000  Level Winnipeg Center
08:50PM 51.7167 -95.8333 25° Northeast 240 276 25,000  Level Winnipeg Center
08:51PM 51.7833 -95.8000 17° North 240 276 25,000  Level Winnipeg Center
08:52PM 51.8333 -95.7667 22° Northeast 240 276 25,000  Level Winnipeg Center
08:53PM 51.9000 -95.7500 North 240 276 25,000  Level Winnipeg Center
08:54PM 51.9667 -95.7167 17° North 250 288 25,000  Level Winnipeg Center
08:55PM 52.0333 -95.6667 25° Northeast 250 288 25,000  Level Winnipeg Center
08:56PM 52.1000 -95.6333 17° North 250 288 25,000  Level Winnipeg Center
08:57PM 52.1667 -95.6000 17° North 250 288 25,000  Level Winnipeg Center
08:58PM 52.2333 -95.5500 25° Northeast 250 288 25,000  Level Winnipeg Center
08:59PM 52.3000 -95.5167 17° North 250 288 25,000  Level Winnipeg Center
09:00PM 52.3667 -95.4833 17° North 250 288 25,000  Level Winnipeg Center
09:01PM 52.4333 -95.4500 17° North 250 288 25,000  Level Winnipeg Center
09:02PM 52.4833 -95.4167 22° Northeast 250 288 25,000  Level Winnipeg Center
09:03PM 52.5500 -95.3667 25° Northeast 250 288 25,000  Level Winnipeg Center
09:04PM 52.6167 -95.3333 17° North 240 276 25,000  Level Winnipeg Center
09:05PM 52.6833 -95.3000 17° North 250 288 25,000  Level Winnipeg Center
09:06PM 52.7500 -95.2833 North 250 288 25,000  Level Winnipeg Center
09:07PM 52.8167 -95.2167 31° Northeast 250 288 25,000  Level Winnipeg Center
09:08PM 52.8833 -95.1833 17° North 250 288 25,000  Level Winnipeg Center
09:10PM 53.0000 -95.1333 14° North 240 276 25,000  Level Winnipeg Center
09:11PM 53.0667 -95.1000 17° North 250 288 25,000  Level Winnipeg Center
09:12PM 53.1333 -95.0667 17° North 250 288 25,000  Level Winnipeg Center
09:13PM 53.2000 -95.0000 31° Northeast 240 276 25,000  Level Winnipeg Center
09:14PM 53.2667 -94.9833 North 250 288 25,000  Level Winnipeg Center
09:15PM 53.3333 -94.9500 17° North 250 288 25,000  Level Winnipeg Center
09:16PM 53.4000 -94.9167 17° North 250 288 25,000  Level Winnipeg Center
09:17PM 53.4500 -94.8500 38° Northeast 250 288 25,000  Level Winnipeg Center
09:18PM 53.5167 -94.8167 17° North 250 288 25,000  Level Winnipeg Center
09:19PM 53.5667 -94.8000 11° North 250 288 25,000  Level Winnipeg Center
09:20PM 53.6333 -94.7667 17° North 250 288 25,000  Level Winnipeg Center
09:21PM 53.7000 -94.7000 31° Northeast 250 288 25,000  Level Winnipeg Center
09:22PM 53.7833 -94.6667 13° North 250 288 25,000  Level Winnipeg Center
09:23PM 53.8333 -94.6333 21° North 250 288 25,000  Level Winnipeg Center
09:24PM 53.9000 -94.6333 360° North 240 276 25,000  Level Winnipeg Center
09:25PM 53.9833 -94.6333 360° North 250 288 25,000  Level Winnipeg Center
09:26PM 54.0500 -94.6167 North 250 288 25,000  Level Winnipeg Center
09:27PM 54.1167 -94.6167 360° North 250 288 25,000  Level Winnipeg Center
09:28PM 54.1833 -94.6500 344° North 250 288 25,000  Level Winnipeg Center
09:29PM 54.2500 -94.6333 North 250 288 25,000  Level Winnipeg Center
09:30PM 54.3167 -94.6333 360° North 250 288 25,000  Level Winnipeg Center
09:31PM 54.4167 -94.6333 360° North 250 288 25,000  Level Winnipeg Center
09:32PM 54.4833 -94.6333 360° North 250 288 25,000  Level Winnipeg Center
09:33PM 54.5500 -94.6500 352° North 250 288 25,000  Level Winnipeg Center
09:34PM 54.6167 -94.6500 360° North 250 288 25,000  Level Winnipeg Center
09:35PM 54.6833 -94.6500 360° North 260 299 25,000  Level Winnipeg Center
09:36PM 54.7667 -94.6500 360° North 250 288 25,000  Level Winnipeg Center
09:37PM 54.8333 -94.6333 North 250 288 25,000  Level Winnipeg Center
09:38PM 54.9000 -94.6667 344° North 260 299 25,000  Level Winnipeg Center
09:39PM 54.9667 -94.6667 360° North 250 288 25,000  Level Winnipeg Center
09:40PM 55.0500 -94.6500 North 260 299 25,000  Level Winnipeg Center
09:41PM 55.1167 -94.6500 360° North 250 288 25,000  Level Winnipeg Center
09:42PM 55.1833 -94.6500 360° North 260 299 25,000  Level Winnipeg Center
09:43PM 55.2500 -94.6667 352° North 250 288 25,000  Level Winnipeg Center
09:44PM 55.3333 -94.6667 360° North 250 288 25,000  Level Winnipeg Center
09:45PM 55.4000 -94.6667 360° North 250 288 25,000  Level Winnipeg Center
09:46PM 55.4667 -94.6667 360° North 250 288 25,000  Level Winnipeg Center
09:47PM 55.5333 -94.6500 North 250 288 25,000  Level Winnipeg Center
09:48PM 55.6000 -94.6500 360° North 250 288 25,000  Level Winnipeg Center
09:49PM 55.6833 -94.6833 347° North 250 288 25,000  Level Winnipeg Center
09:50PM 55.7500 -94.6667 North 260 299 25,000  Level Winnipeg Center
09:51PM 55.8167 -94.6667 360° North 250 288 25,000  Level Winnipeg Center
09:52PM 55.8833 -94.6667 360° North 260 299 25,000  Level Winnipeg Center
09:53PM 55.9667 -94.6833 354° North 260 299 25,000  Level Winnipeg Center
09:54PM 56.0333 -94.6833 360° North 260 299 25,000  Level Winnipeg Center
09:55PM 56.1000 -94.6833 360° North 260 299 25,000  Level Winnipeg Center
09:56PM 56.1667 -94.6833 360° North 260 299 25,000  Level Winnipeg Center
09:57PM 56.2500 -94.6667 North 260 299 25,000  Level Winnipeg Center
09:58PM 56.3167 -94.6667 360° North 260 299 25,000  Level Winnipeg Center
09:59PM 56.3833 -94.7000 345° North 260 299 25,000  Level Winnipeg Center
10:00PM 56.4500 -94.6667 15° North 250 288 25,000  Level Winnipeg Center
10:01PM 56.5167 -94.6333 15° North 250 288 25,000  Level Winnipeg Center
10:02PM 56.6000 -94.6167 North 250 288 25,000  Level Winnipeg Center
10:03PM 56.6667 -94.6167 360° North 250 288 25,000  Level Winnipeg Center
10:04PM 56.7333 -94.5833 15° North 250 288 25,000  Level Winnipeg Center
10:05PM 56.8000 -94.5833 360° North 260 299 25,000  Level Winnipeg Center
10:06PM 56.8833 -94.5667 North 250 288 25,000  Level Winnipeg Center
10:07PM 56.9500 -94.5333 15° North 250 288 25,000  Level Winnipeg Center
10:08PM 57.0167 -94.5333 360° North 260 299 25,000  Level Winnipeg Center
10:09PM 57.0833 -94.5000 15° North 260 299 25,000  Level Winnipeg Center
10:10PM 57.1667 -94.5000 360° North 250 288 25,000  Level Winnipeg Center
10:11PM 57.2333 -94.4833 North 260 299 25,000  Level Winnipeg Center
10:12PM 57.3000 -94.4500 15° North 250 288 25,000  Level Winnipeg Center
10:13PM 57.3667 -94.4500 360° North 250 288 25,000  Level Winnipeg Center
10:14PM 57.4333 -94.4500 360° North 250 288 25,000  Level Winnipeg Center
10:15PM 57.5167 -94.4000 18° North 250 288 25,000  Level Winnipeg Center
10:16PM 57.5833 -94.4000 360° North 250 288 25,000  Level Winnipeg Center
10:17PM 57.6500 -94.3667 15° North 250 288 25,000  Level Winnipeg Center
10:18PM 57.7167 -94.3667 360° North 250 288 25,000  Level Winnipeg Center
10:19PM 57.7833 -94.3500 North 250 288 25,000  Level Winnipeg Center
10:20PM 57.8500 -94.3167 15° North 250 288 25,000  Level Winnipeg Center
10:21PM 57.9333 -94.3167 360° North 250 288 25,000  Level Winnipeg Center
10:22PM 58.0000 -94.3167 360° North 250 288 25,000  Level Winnipeg Center
10:23PM 58.0667 -94.2667 22° Northeast 250 288 25,000  Level Winnipeg Center
10:24PM 58.1333 -94.2667 360° North 250 288 25,000  Level Winnipeg Center
10:25PM 58.2000 -94.2333 15° North 250 288 25,000  Level Winnipeg Center
10:26PM 58.2667 -94.2333 360° North 250 288 25,000  Level Winnipeg Center
10:27PM 58.3500 -94.2167 North 260 299 25,000  Level Winnipeg Center
10:28PM 58.4167 -94.1833 15° North 260 299 25,000  Level Winnipeg Center
10:31PM 58.5470 -94.1629 North  Level FlightAware Approximate
10:38PM 59.0052 -94.0141 13° North  Level FlightAware Approximate
10:39PM 59.0700 -93.9854 13° North  Level FlightAware Approximate
10:40PM 59.1348 -93.9566 13° North  Level FlightAware Approximate
10:41PM 59.1996 -93.9276 13° North  Level FlightAware Approximate
10:42PM 59.2644 -93.8986 13° North  Level FlightAware Approximate
10:43PM 59.3292 -93.8694 13° North  Level FlightAware Approximate
10:44PM 59.3940 -93.8402 13° North  Level FlightAware Approximate
10:45PM 59.4588 -93.8108 13° North  Level FlightAware Approximate
10:46PM 59.5235 -93.7813 13° North  Level FlightAware Approximate
10:47PM 59.5883 -93.7517 13° North  Level FlightAware Approximate
10:48PM 59.6531 -93.7220 13° North  Level FlightAware Approximate
10:49PM 59.7178 -93.6922 13° North  Level FlightAware Approximate
10:50PM 59.7826 -93.6622 13° North  Level FlightAware Approximate
10:51PM 59.8473 -93.6321 13° North  Level FlightAware Approximate
10:52PM 59.9120 -93.6020 13° North  Level FlightAware Approximate
10:53PM 59.9767 -93.5717 13° North  Level FlightAware Approximate
10:54PM 60.0415 -93.5413 13° North  Level FlightAware Approximate
10:55PM 60.1062 -93.5107 13° North  Level FlightAware Approximate
10:56PM 60.1709 -93.4800 13° North  Level FlightAware Approximate
10:57PM 60.2355 -93.4493 13° North  Level FlightAware Approximate
10:58PM 60.3002 -93.4184 13° North  Level FlightAware Approximate
10:59PM 60.3649 -93.3874 13° North  Level FlightAware Approximate
11:00PM 60.4296 -93.3562 13° North  Level FlightAware Approximate
11:01PM 60.4943 -93.3249 13° North  Level FlightAware Approximate
11:02PM 60.5589 -93.2935 13° North  Level FlightAware Approximate
11:03PM 60.6236 -93.2620 13° North  Level FlightAware Approximate
11:04PM 60.6882 -93.2304 13° North  Level FlightAware Approximate
11:05PM 60.7528 -93.1986 14° North  Level FlightAware Approximate
11:06PM 60.8175 -93.1667 14° North  Level FlightAware Approximate
11:07PM 60.8821 -93.1347 14° North  Level FlightAware Approximate
11:08PM 60.9467 -93.1025 14° North  Level FlightAware Approximate
11:09PM 61.0113 -93.0702 14° North  Level FlightAware Approximate
11:10PM 61.0759 -93.0378 14° North  Level FlightAware Approximate
11:11PM 61.1405 -93.0052 14° North  Level FlightAware Approximate
11:12PM 61.2051 -92.9725 14° North  Level FlightAware Approximate
11:13PM 61.2697 -92.9402 13° North  Level FlightAware Approximate
11:14PM 61.3344 -92.9079 14° North  Level FlightAware Approximate
11:15PM 61.3980 -92.8681 18° North  Level FlightAware Approximate
11:16PM 61.4619 -92.8333 North  Level FlightAware Approximate
11:17PM 61.5273 -92.8091 11° North  Level FlightAware Approximate
11:18PM 61.5919 -92.7772 14° North  Level FlightAware Approximate
11:19PM 61.6563 -92.7421 15° North  Level FlightAware Approximate
11:20PM 61.7206 -92.7068 15° North  Level FlightAware Approximate
11:21PM 61.7850 -92.6714 15° North  Level FlightAware Approximate
11:22PM 61.8493 -92.6359 15° North  Level FlightAware Approximate
11:23PM 61.9136 -92.6002 15° North  Level FlightAware Approximate
11:24PM 61.9779 -92.5644 15° North  Level FlightAware Approximate
11:25PM 62.0423 -92.5289 13° North  Level FlightAware Approximate
11:26PM 62.1070 -92.4966 13° North  Level FlightAware Approximate
11:27PM 62.1717 -92.4642 13° North  Level FlightAware Approximate
11:28PM 62.2363 -92.4306 14° North  Level FlightAware Approximate
11:29PM 62.3008 -92.3959 14° North  Level FlightAware Approximate
11:30PM 62.3653 -92.3612 14° North  Level FlightAware Approximate
11:31PM 62.4296 -92.3248 17° North  Level FlightAware Approximate
11:32PM 62.4931 -92.2825 17° North  Level FlightAware Approximate
11:33PM 62.5567 -92.2400 17° North  Level FlightAware Approximate
11:34PM 62.6217 -92.2142 13° North  Level FlightAware Approximate
11:35PM 62.6861 -92.1784 15° North  Level FlightAware Approximate
11:36PM 62.7504 -92.1415 13° North  Level FlightAware Approximate
11:37PM 62.8000 -92.1000 90° East  Level FlightAware Approximate
11:38PM 62.8114 -92.1158 90° East  Level Estimated
11:39PM 62.8114 -92.1158 90° East  Level Estimated
11:40PM 62.8114 -92.1158 90° East  Level Estimated
11:41PM 62.8114 -92.1158 90° East  Level Estimated